Terminal Aerodrome Forecast
Issued by NWS King Salmon, AK

Home | Current Version | Previous Version | Text Only | Print | Product List | Glossary On
Versions: 1 2 3 4 5 6 7 8 9 10 11 12 13 14 15 16
000
FTAK31 PANC 250531
TAFAKN
TAF
PAKN 250531Z 2506/2606 27005KT P6SM -SHRA SCT025 BKN040
     FM251500 32005KT P6SM FEW045 BKN120=

USA.gov is the U.S. government's official web portal to all federal, state and local government web resources and services.